createdAt,value
2018-09-27T00:02:58.791Z,101873.33
2018-09-27T00:07:41.623Z,101873.66
2018-09-27T00:12:24.581Z,101860.93
2018-09-27T00:17:07.683Z,101863.23
2018-09-27T00:21:51.194Z,101852.77
2018-09-27T00:26:34.039Z,101854.47
2018-09-27T00:31:18.104Z,101850.62
2018-09-27T00:36:01.004Z,101843.63
2018-09-27T00:40:43.888Z,101832.59
2018-09-27T00:45:28.176Z,101831.75
2018-09-27T00:50:11.240Z,101819.87
2018-09-27T00:54:55.347Z,101816.92
2018-09-27T00:59:38.206Z,101814.84
2018-09-27T01:04:21.152Z,101811.73
2018-09-27T01:09:05.473Z,101814.30
2018-09-27T01:13:48.387Z,101791.09
2018-09-27T01:18:31.231Z,101799.95
2018-09-27T01:23:14.151Z,101797.22
2018-09-27T01:27:57.003Z,101790.44
2018-09-27T01:32:40.955Z,101780.31
2018-09-27T01:37:23.838Z,101788.75
2018-09-27T01:42:07.732Z,101781.86
2018-09-27T01:46:52.678Z,101786.95
2018-09-27T01:51:36.608Z,101782.25
2018-09-27T01:56:19.498Z,101782.05
2018-09-27T02:01:02.601Z,101793.11
2018-09-27T02:05:45.449Z,101784.36
2018-09-27T02:10:28.302Z,101784.38
2018-09-27T02:15:11.247Z,101773.27
2018-09-27T02:19:54.089Z,101773.73
2018-09-27T02:24:39.059Z,101776.76
2018-09-27T02:29:21.881Z,101775.91
2018-09-27T02:34:04.952Z,101780.86
2018-09-27T02:38:47.797Z,101771.56
2018-09-27T02:43:30.872Z,101769.16
2018-09-27T02:48:13.737Z,101771.34
2018-09-27T02:52:58.040Z,101772.05
2018-09-27T02:57:40.882Z,101772.84
2018-09-27T03:02:23.910Z,101768.80
2018-09-27T03:07:07.200Z,101776.64
2018-09-27T03:11:50.228Z,101774.89
2018-09-27T03:16:33.067Z,101776.13
2018-09-27T03:21:17.009Z,101776.30
2018-09-27T03:25:59.863Z,101789.05
2018-09-27T03:30:42.763Z,101798.70
2018-09-27T03:35:25.646Z,101790.85
2018-09-27T03:40:08.983Z,101790.17
2018-09-27T03:44:51.917Z,101795.67
2018-09-27T03:49:34.779Z,101793.89
2018-09-27T03:54:17.684Z,101793.09
2018-09-27T03:59:02.295Z,101794.73
2018-09-27T04:03:46.281Z,101800.48
2018-09-27T04:08:29.104Z,101797.92
2018-09-27T04:13:12.589Z,101797.05
2018-09-27T04:17:55.444Z,101795.69
2018-09-27T04:22:38.331Z,101794.79
2018-09-27T04:27:21.198Z,101793.99
2018-09-27T04:32:04.111Z,101803.17
2018-09-27T04:36:47.007Z,101794.80
2018-09-27T04:41:33.708Z,101795.22
2018-09-27T04:46:16.570Z,101785.09
2018-09-27T04:50:59.487Z,101786.81
2018-09-27T04:55:42.344Z,101781.92
2018-09-27T05:00:28.551Z,101783.66
2018-09-27T05:05:11.441Z,101790.66
2018-09-27T05:09:54.280Z,101785.47
2018-09-27T05:14:37.169Z,101796.36
2018-09-27T05:19:20.087Z,101790.64
2018-09-27T05:24:03.315Z,101791.95
2018-09-27T05:28:46.232Z,101786.98
2018-09-27T05:33:29.272Z,101785.72
2018-09-27T05:38:12.150Z,101778.68
2018-09-27T05:42:56.036Z,101779.45
2018-09-27T05:47:38.907Z,101787.30
2018-09-27T05:52:21.797Z,101795.20
2018-09-27T05:57:04.666Z,101791.21
2018-09-27T06:01:47.561Z,101793.67
2018-09-27T06:06:30.424Z,101794.27
2018-09-27T06:11:13.338Z,101799.19
2018-09-27T06:15:56.196Z,101798.33
2018-09-27T06:20:39.078Z,101792.44
2018-09-27T06:25:21.939Z,101786.16
2018-09-27T06:30:04.984Z,101787.38
2018-09-27T06:34:47.824Z,101798.88
2018-09-27T06:39:32.738Z,101797.88
2018-09-27T06:44:15.807Z,101792.26
2018-09-27T06:48:58.682Z,101796.14
2018-09-27T06:53:41.720Z,101796.25
2018-09-27T06:58:24.646Z,101796.14
2018-09-27T07:03:07.594Z,101798.28
2018-09-27T07:07:50.452Z,101791.68
2018-09-27T07:12:33.438Z,101795.05
2018-09-27T07:17:17.527Z,101803.33
2018-09-27T07:22:00.392Z,101797.11
2018-09-27T07:26:43.438Z,101796.36
2018-09-27T07:31:26.508Z,101791.45
2018-09-27T07:36:09.402Z,101796.29
2018-09-27T07:40:52.461Z,101779.42
2018-09-27T07:45:35.405Z,101766.54
2018-09-27T07:50:18.475Z,101769.95
2018-09-27T07:55:01.337Z,101764.50
2018-09-27T07:59:44.221Z,101756.86
2018-09-27T08:04:27.082Z,101759.70
2018-09-27T08:09:09.956Z,101761.44
2018-09-27T08:13:52.871Z,101749.55
2018-09-27T08:18:35.831Z,101743.80
2018-09-27T08:23:19.919Z,101740.95
2018-09-27T08:28:02.791Z,101732.30
2018-09-27T08:32:45.662Z,101727.72
2018-09-27T08:37:28.576Z,101729.84
2018-09-27T08:42:11.454Z,101726.97
2018-09-27T08:46:54.357Z,101724.92
2018-09-27T08:51:38.444Z,101721.50
2018-09-27T08:56:21.374Z,101712.47
2018-09-27T09:01:04.310Z,101705.09
2018-09-27T09:05:47.275Z,101704.29
2018-09-27T09:10:30.604Z,101691.98
2018-09-27T09:15:13.633Z,101686.70
2018-09-27T09:19:56.575Z,101669.92
2018-09-27T09:24:39.445Z,101668.15
2018-09-27T09:29:22.946Z,101663.16
2018-09-27T09:34:06.375Z,101656.23
2018-09-27T09:38:57.147Z,101648.49
2018-09-27T09:43:40.292Z,101634.73
2018-09-27T09:48:23.159Z,101643.63
2018-09-27T09:53:07.296Z,101636.59
2018-09-27T09:57:50.168Z,101632.42
2018-09-27T10:02:33.397Z,101627.72
2018-09-27T10:07:16.308Z,101624.83
2018-09-27T10:12:00.408Z,101607.39
2018-09-27T10:16:43.300Z,101613.47
2018-09-27T10:21:27.469Z,101606.76
2018-09-27T10:26:11.563Z,101598.25
2018-09-27T10:32:24.894Z,101590.51
2018-09-27T10:37:07.760Z,101575.54
2018-09-27T10:41:50.803Z,101560.33
2018-09-27T10:46:33.658Z,101558.58
2018-09-27T10:51:17.688Z,101555.06
2018-09-27T10:56:00.565Z,101550.34
2018-09-27T11:00:44.727Z,101551.03
2018-09-27T11:05:27.686Z,101542.33
2018-09-27T11:10:19.183Z,101538.03
2018-09-27T11:15:09.680Z,101528.36
2018-09-27T11:20:10.766Z,101516.50
2018-09-27T11:24:55.823Z,101513.73
2018-09-27T11:29:44.519Z,101509.87
2018-09-27T11:34:27.411Z,101505.80
2018-09-27T11:39:11.020Z,101496.36
2018-09-27T11:43:53.993Z,101495.11
2018-09-27T11:48:36.845Z,101498.34
2018-09-27T11:53:19.874Z,101483.95
2018-09-27T11:58:02.717Z,101472.62
2018-09-27T12:02:45.628Z,101472.20
2018-09-27T12:07:28.599Z,101483.77
2018-09-27T12:12:11.677Z,101477.17
2018-09-27T12:16:54.576Z,101480.73
2018-09-27T12:21:37.686Z,101470.06
2018-09-27T12:26:21.650Z,101462.59
2018-09-27T12:31:21.388Z,101465.18
2018-09-27T12:36:04.764Z,101454.41
2018-09-27T12:40:48.686Z,101443.72
2018-09-27T12:45:31.582Z,101443.78
2018-09-27T12:50:14.750Z,101444.30
2018-09-27T12:54:57.623Z,101433.07
2018-09-27T12:59:40.931Z,101429.31
2018-09-27T13:04:24.209Z,101427.24
2018-09-27T13:09:09.292Z,101421.34
2018-09-27T13:13:52.951Z,101417.38
2018-09-27T13:18:35.836Z,101412.96
2018-09-27T13:23:19.738Z,101401.83
2018-09-27T13:28:02.645Z,101399.50
2018-09-27T13:32:45.801Z,101401.08
2018-09-27T13:37:28.648Z,101391.97
2018-09-27T13:42:12.869Z,101394.58
2018-09-27T13:46:56.110Z,101399.65
2018-09-27T13:51:40.111Z,101398.09
2018-09-27T13:56:22.954Z,101396.37
2018-09-27T14:01:05.997Z,101391.58
2018-09-27T14:05:48.923Z,101389.41
2018-09-27T14:10:31.922Z,101397.78
2018-09-27T14:15:14.772Z,101385.54
2018-09-27T14:19:57.695Z,101376.70
2018-09-27T14:24:40.565Z,101380.27
2018-09-27T14:29:24.455Z,101379.91
2018-09-27T14:34:08.399Z,101375.13
2018-09-27T14:38:51.519Z,101373.97
2018-09-27T14:43:34.430Z,101364.07
2018-09-27T14:48:17.303Z,101367.83
2018-09-27T14:53:02.205Z,101368.98
2018-09-27T14:57:45.126Z,101377.03
2018-09-27T15:07:28.441Z,101374.47
2018-09-27T15:12:12.690Z,101377.24
2018-09-27T15:16:55.797Z,101377.70
2018-09-27T15:21:40.050Z,101377.31
2018-09-27T15:26:23.233Z,101379.91
2018-09-27T15:31:07.682Z,101381.59
2018-09-27T15:35:50.823Z,101377.13
2018-09-27T15:40:38.203Z,101380.73
2018-09-27T15:45:21.366Z,101379.45
2018-09-27T15:50:04.891Z,101375.61
2018-09-27T15:54:48.001Z,101376.73
2018-09-27T15:59:31.249Z,101370.90
2018-09-27T16:04:14.420Z,101374.11
2018-09-27T16:08:57.755Z,101374.05
2018-09-27T16:13:40.903Z,101368.54
2018-09-27T16:18:24.262Z,101364.56
2018-09-27T16:23:07.555Z,101363.05
2018-09-27T16:27:50.668Z,101359.11
2018-09-27T16:32:34.017Z,101361.91
2018-09-27T16:37:17.139Z,101354.59
2018-09-27T16:42:01.821Z,101353.01
2018-09-27T16:46:45.259Z,101355.75
2018-09-27T16:51:28.709Z,101360.95
2018-09-27T16:56:11.829Z,101359.34
2018-09-27T17:01:00.216Z,101353.90
2018-09-27T17:05:43.448Z,101354.27
2018-09-27T17:10:28.314Z,101361.47
2018-09-27T17:15:11.434Z,101360.44
2018-09-27T17:19:54.644Z,101371.00
2018-09-27T17:24:38.318Z,101363.66
2018-09-27T17:29:21.672Z,101372.07
2018-09-27T17:34:04.807Z,101391.43
2018-09-27T17:38:48.613Z,101392.30
2018-09-27T17:43:31.789Z,101399.30
2018-09-27T17:48:15.012Z,101402.87
2018-09-27T17:52:58.144Z,101403.10
2018-09-27T17:57:41.289Z,101398.64
2018-09-27T18:02:34.427Z,101406.52
2018-09-27T18:07:17.753Z,101405.57
2018-09-27T18:12:00.800Z,101407.36
2018-09-27T18:16:43.804Z,101413.08
2018-09-27T18:21:26.929Z,101415.95
2018-09-27T18:26:10.177Z,101410.33
2018-09-27T18:30:54.343Z,101413.03
2018-09-27T18:35:37.295Z,101407.69
2018-09-27T18:40:22.154Z,101410.96
2018-09-27T18:45:05.787Z,101413.98
2018-09-27T18:49:50.136Z,101412.66
2018-09-27T18:54:36.337Z,101411.03
2018-09-27T18:59:19.494Z,101404.97
2018-09-27T19:04:02.619Z,101403.17
2018-09-27T19:08:46.512Z,101403.03
2018-09-27T19:13:29.830Z,101408.19
2018-09-27T19:18:18.336Z,101408.31
2018-09-27T19:23:01.253Z,101408.70
2018-09-27T19:28:47.159Z,101413.55
2018-09-27T19:33:30.232Z,101415.67
2018-09-27T19:38:13.273Z,101417.41
2018-09-27T19:42:56.267Z,101424.25
2018-09-27T19:47:39.161Z,101427.11
2018-09-27T19:52:22.569Z,101422.02
2018-09-27T19:57:05.432Z,101427.85
2018-09-27T20:01:48.396Z,101421.08
2018-09-27T20:06:31.782Z,101416.55
2018-09-27T20:11:14.986Z,101410.30
2018-09-27T20:15:57.920Z,101415.19
2018-09-27T20:20:40.931Z,101408.77
2018-09-27T20:25:23.823Z,101415.18
2018-09-27T20:30:08.070Z,101409.11
2018-09-27T20:34:51.029Z,101405.20
2018-09-27T20:39:35.029Z,101405.72
2018-09-27T20:44:17.979Z,101401.41
2018-09-27T20:49:01.398Z,101393.71
2018-09-27T20:53:44.868Z,101391.95
2018-09-27T20:58:27.834Z,101388.33
2018-09-27T21:03:10.886Z,101393.16
2018-09-27T21:07:53.707Z,101390.56
2018-09-27T21:12:36.566Z,101381.02
2018-09-27T21:17:19.498Z,101376.66
2018-09-27T21:22:03.474Z,101380.91
2018-09-27T21:26:46.656Z,101381.67
2018-09-27T21:31:30.925Z,101373.11
2018-09-27T21:36:14.060Z,101366.81
2018-09-27T21:40:58.073Z,101372.60
2018-09-27T21:45:40.906Z,101355.59
2018-09-27T21:50:24.943Z,101359.50
2018-09-27T21:55:07.873Z,101360.42
2018-09-27T21:59:51.370Z,101354.98
2018-09-27T22:04:34.306Z,101352.42
2018-09-27T22:09:17.165Z,101353.20
2018-09-27T22:14:00.447Z,101350.17
2018-09-27T22:18:43.458Z,101341.66
2018-09-27T22:23:26.376Z,101337.36
2018-09-27T22:28:09.581Z,101351.79
2018-09-27T22:32:52.500Z,101348.73
2018-09-27T22:37:35.291Z,101342.95
2018-09-27T22:42:18.124Z,101340.64
2018-09-27T22:47:01.001Z,101330.95
2018-09-27T22:51:43.879Z,101328.61
2018-09-27T22:56:27.189Z,101332.85
2018-09-27T23:01:11.569Z,101335.96
2018-09-27T23:05:54.403Z,101339.00
2018-09-27T23:19:36.692Z,101325.88
2018-09-27T23:24:19.501Z,101312.30
2018-09-27T23:29:02.370Z,101317.48
2018-09-27T23:33:45.258Z,101306.02
2018-09-27T23:38:28.291Z,101299.61
2018-09-27T23:43:33.549Z,101293.12
2018-09-27T23:53:42.258Z,101282.19
2018-09-27T23:58:26.123Z,101281.33
